Main page
Satellite images 15-day forecastsClimateMarine weather Cyclones Lightning AirportsFAQ Newsletter About
Weather : Europe Africa North America South America Asia Australia-Oceania Others
Languages Contact

Eleusina, Greece

latitude: 38-04N, longitude: 023-33E, elevation: 44 m


METAR: LGEL 010750Z 36012G22KT 9999 SCT030 15/04 Q1021
TAF: LGEL 010500Z 0106/0206 03015KT 9999 FEW020 SCT070 BECMG 0106/0108 01015G25KT

Time: 10:04 (08:04 UTC)

Current weather observation

The report was made 14 minutes ago, at 07:50 UTC
Wind 12 kt from the North with gusts up to 22 kt
Temperature 15°C
Humidity 48%
Pressure 1021 hPa
Visibility 10 km or more
Scattered clouds at a height of 3000 ft

Change units

Forecast

The report was made 3 hours and 4 minutes ago, at 05:00 UTC
Forecast valid from 01 at 06 UTC to 02 at 06 UTC
Wind 15 kt from the North/Northeast
Visibility 10 km or more
Few clouds at a height of 2000 ft
Scattered clouds at a height of 7000 ft
Becoming
from 01 at 06 UTC to 01 at 08 UTC
Wind 15 kt from the North with gusts up to 25 kt
The information on this site is subject to a disclaimer
Weather : Europe Africa North America South America Asia Australia-Oceania Others
Satellite images 15-day forecastsClimateMarine weather Cyclones Lightning AirportsFAQ Languages Contact Newsletter About